sensor_id;sensor_type;location;lat;lon;timestamp;pressure;altitude;pressure_sealevel;temperature;humidity
12775;BME280;6451;42.630;23.382;2024-02-15T00:02:02;94756.13;;;4.97;100.00
12775;BME280;6451;42.630;23.382;2024-02-15T00:04:30;94730.06;;;4.70;100.00
12775;BME280;6451;42.630;23.382;2024-02-15T00:06:59;94746.41;;;4.60;100.00
12775;BME280;6451;42.630;23.382;2024-02-15T00:09:27;94758.53;;;4.71;100.00
12775;BME280;6451;42.630;23.382;2024-02-15T00:11:54;94763.53;;;4.78;100.00
12775;BME280;6451;42.630;23.382;2024-02-15T00:14:22;94722.09;;;4.65;100.00
12775;BME280;6451;42.630;23.382;2024-02-15T00:16:55;94770.88;;;5.00;100.00
12775;BME280;6451;42.630;23.382;2024-02-15T00:19:22;94732.06;;;4.65;100.00
12775;BME280;6451;42.630;23.382;2024-02-15T00:21:49;94739.41;;;4.73;100.00
12775;BME280;6451;42.630;23.382;2024-02-15T00:24:16;94765.28;;;4.96;100.00
12775;BME280;6451;42.630;23.382;2024-02-15T00:26:43;94779.34;;;4.93;100.00
12775;BME280;6451;42.630;23.382;2024-02-15T00:29:10;94758.63;;;4.94;100.00
12775;BME280;6451;42.630;23.382;2024-02-15T00:31:38;94769.88;;;4.96;100.00
12775;BME280;6451;42.630;23.382;2024-02-15T00:34:06;94762.50;;;4.88;100.00
12775;BME280;6451;42.630;23.382;2024-02-15T00:36:33;94770.09;;;4.99;100.00
12775;BME280;6451;42.630;23.382;2024-02-15T00:39:00;94766.59;;;4.85;100.00
12775;BME280;6451;42.630;23.382;2024-02-15T00:41:33;94749.06;;;4.74;100.00
12775;BME280;6451;42.630;23.382;2024-02-15T00:44:00;94783.53;;;4.99;100.00
12775;BME280;6451;42.630;23.382;2024-02-15T00:46:27;94755.94;;;4.80;100.00
12775;BME280;6451;42.630;23.382;2024-02-15T00:48:55;94778.47;;;4.84;100.00
12775;BME280;6451;42.630;23.382;2024-02-15T00:51:23;94769.97;;;4.63;100.00
12775;BME280;6451;42.630;23.382;2024-02-15T00:53:50;94737.22;;;4.47;100.00
12775;BME280;6451;42.630;23.382;2024-02-15T00:56:17;94788.81;;;4.77;100.00
12775;BME280;6451;42.630;23.382;2024-02-15T00:58:44;94781.81;;;4.90;100.00
12775;BME280;6451;42.630;23.382;2024-02-15T01:01:11;94782.03;;;4.80;100.00
12775;BME280;6451;42.630;23.382;2024-02-15T01:07:24;94782.41;;;4.73;100.00
12775;BME280;6451;42.630;23.382;2024-02-15T01:09:53;94763.59;;;4.73;100.00
12775;BME280;6451;42.630;23.382;2024-02-15T01:12:20;94789.00;;;4.94;100.00
12775;BME280;6451;42.630;23.382;2024-02-15T01:14:48;94781.63;;;5.00;100.00
12775;BME280;6451;42.630;23.382;2024-02-15T01:17:15;94768.09;;;4.91;100.00
12775;BME280;6451;42.630;23.382;2024-02-15T01:19:43;94770.50;;;4.93;100.00
12775;BME280;6451;42.630;23.382;2024-02-15T01:22:11;94776.16;;;4.91;100.00
12775;BME280;6451;42.630;23.382;2024-02-15T01:24:39;94773.19;;;4.93;100.00
12775;BME280;6451;42.630;23.382;2024-02-15T01:27:06;94756.84;;;4.62;100.00
12775;BME280;6451;42.630;23.382;2024-02-15T01:29:34;94743.09;;;4.63;100.00
12775;BME280;6451;42.630;23.382;2024-02-15T01:32:02;94762.59;;;4.83;100.00
12775;BME280;6451;42.630;23.382;2024-02-15T01:34:30;94766.59;;;4.99;100.00
12775;BME280;6451;42.630;23.382;2024-02-15T01:36:57;94774.34;;;4.73;100.00
12775;BME280;6451;42.630;23.382;2024-02-15T01:39:25;94743.41;;;4.76;100.00
12775;BME280;6451;42.630;23.382;2024-02-15T01:41:54;94773.38;;;4.69;100.00
12775;BME280;6451;42.630;23.382;2024-02-15T01:44:22;94765.19;;;4.88;100.00
12775;BME280;6451;42.630;23.382;2024-02-15T01:46:50;94773.47;;;4.64;100.00
12775;BME280;6451;42.630;23.382;2024-02-15T01:49:20;94765.59;;;4.54;100.00
12775;BME280;6451;42.630;23.382;2024-02-15T01:51:49;94761.31;;;4.80;100.00
12775;BME280;6451;42.630;23.382;2024-02-15T01:54:18;94765.09;;;4.79;100.00
12775;BME280;6451;42.630;23.382;2024-02-15T01:56:46;94758.44;;;4.63;100.00
12775;BME280;6451;42.630;23.382;2024-02-15T01:59:16;94754.56;;;4.69;100.00
12775;BME280;6451;42.630;23.382;2024-02-15T02:01:44;94767.22;;;4.68;100.00
12775;BME280;6451;42.630;23.382;2024-02-15T02:04:11;94782.41;;;4.73;100.00
12775;BME280;6451;42.630;23.382;2024-02-15T02:06:39;94757.84;;;4.80;100.00
12775;BME280;6451;42.630;23.382;2024-02-15T02:09:10;94771.09;;;4.62;100.00
12775;BME280;6451;42.630;23.382;2024-02-15T02:11:40;94781.22;;;4.65;100.00
12775;BME280;6451;42.630;23.382;2024-02-15T02:14:16;94746.97;;;4.57;100.00
12775;BME280;6451;42.630;23.382;2024-02-15T02:16:50;94751.53;;;4.43;100.00
12775;BME280;6451;42.630;23.382;2024-02-15T02:19:17;94773.28;;;4.60;100.00
12775;BME280;6451;42.630;23.382;2024-02-15T02:21:44;94786.31;;;4.53;100.00
12775;BME280;6451;42.630;23.382;2024-02-15T02:24:13;94773.66;;;4.54;100.00
12775;BME280;6451;42.630;23.382;2024-02-15T02:26:42;94778.34;;;4.62;100.00
12775;BME280;6451;42.630;23.382;2024-02-15T02:29:09;94785.22;;;4.54;100.00
12775;BME280;6451;42.630;23.382;2024-02-15T02:31:36;94787.22;;;4.62;100.00
12775;BME280;6451;42.630;23.382;2024-02-15T02:34:03;94803.78;;;4.51;100.00
12775;BME280;6451;42.630;23.382;2024-02-15T02:36:32;94795.28;;;4.62;100.00
12775;BME280;6451;42.630;23.382;2024-02-15T02:38:58;94764.66;;;4.44;100.00
12775;BME280;6451;42.630;23.382;2024-02-15T02:41:26;94786.28;;;4.67;100.00
12775;BME280;6451;42.630;23.382;2024-02-15T02:43:56;94790.59;;;4.54;100.00
12775;BME280;6451;42.630;23.382;2024-02-15T02:46:24;94794.53;;;4.43;100.00
12775;BME280;6451;42.630;23.382;2024-02-15T02:48:51;94793.72;;;4.42;100.00
12775;BME280;6451;42.630;23.382;2024-02-15T02:51:19;94784.06;;;4.28;100.00
12775;BME280;6451;42.630;23.382;2024-02-15T02:53:46;94800.69;;;4.43;100.00
12775;BME280;6451;42.630;23.382;2024-02-15T02:56:12;94806.41;;;4.56;100.00
12775;BME280;6451;42.630;23.382;2024-02-15T02:58:39;94809.69;;;4.66;100.00
12775;BME280;6451;42.630;23.382;2024-02-15T03:01:09;94812.91;;;4.36;100.00
12775;BME280;6451;42.630;23.382;2024-02-15T03:03:37;94809.78;;;4.47;100.00
12775;BME280;6451;42.630;23.382;2024-02-15T03:06:05;94809.28;;;4.45;100.00
12775;BME280;6451;42.630;23.382;2024-02-15T03:08:33;94804.81;;;4.55;100.00
12775;BME280;6451;42.630;23.382;2024-02-15T03:11:01;94811.47;;;4.57;100.00
12775;BME280;6451;42.630;23.382;2024-02-15T03:13:28;94807.28;;;4.51;100.00
12775;BME280;6451;42.630;23.382;2024-02-15T03:15:55;94809.06;;;4.42;100.00
12775;BME280;6451;42.630;23.382;2024-02-15T03:18:24;94805.47;;;4.33;100.00
12775;BME280;6451;42.630;23.382;2024-02-15T03:20:50;94804.00;;;4.40;100.00
12775;BME280;6451;42.630;23.382;2024-02-15T03:23:17;94815.84;;;4.39;100.00
12775;BME280;6451;42.630;23.382;2024-02-15T03:25:44;94812.22;;;4.30;100.00
12775;BME280;6451;42.630;23.382;2024-02-15T03:28:11;94819.28;;;4.26;100.00
12775;BME280;6451;42.630;23.382;2024-02-15T03:30:39;94815.22;;;4.42;100.00
12775;BME280;6451;42.630;23.382;2024-02-15T03:33:06;94822.19;;;4.30;100.00
12775;BME280;6451;42.630;23.382;2024-02-15T03:35:34;94823.13;;;4.20;100.00
12775;BME280;6451;42.630;23.382;2024-02-15T03:38:03;94825.44;;;4.27;100.00
12775;BME280;6451;42.630;23.382;2024-02-15T03:40:30;94796.56;;;4.18;100.00
12775;BME280;6451;42.630;23.382;2024-02-15T03:42:59;94802.19;;;4.03;100.00
12775;BME280;6451;42.630;23.382;2024-02-15T03:45:26;94816.91;;;4.06;100.00
12775;BME280;6451;42.630;23.382;2024-02-15T03:47:53;94819.22;;;4.12;100.00
12775;BME280;6451;42.630;23.382;2024-02-15T03:50:21;94816.91;;;4.06;100.00
12775;BME280;6451;42.630;23.382;2024-02-15T03:52:50;94818.72;;;4.10;100.00
12775;BME280;6451;42.630;23.382;2024-02-15T03:55:17;94793.41;;;3.98;100.00
12775;BME280;6451;42.630;23.382;2024-02-15T03:57:46;94818.66;;;3.97;100.00
12775;BME280;6451;42.630;23.382;2024-02-15T04:00:13;94802.00;;;4.00;100.00
12775;BME280;6451;42.630;23.382;2024-02-15T04:02:40;94812.50;;;3.96;100.00
12775;BME280;6451;42.630;23.382;2024-02-15T04:05:09;94802.06;;;3.95;100.00
12775;BME280;6451;42.630;23.382;2024-02-15T04:07:38;94821.34;;;3.97;100.00
12775;BME280;6451;42.630;23.382;2024-02-15T04:10:09;94820.19;;;4.03;100.00
12775;BME280;6451;42.630;23.382;2024-02-15T04:12:36;94789.38;;;3.81;100.00
12775;BME280;6451;42.630;23.382;2024-02-15T04:15:03;94821.28;;;4.02;100.00
12775;BME280;6451;42.630;23.382;2024-02-15T04:17:37;94812.72;;;4.00;100.00
12775;BME280;6451;42.630;23.382;2024-02-15T04:20:08;94816.09;;;3.92;100.00
12775;BME280;6451;42.630;23.382;2024-02-15T04:22:37;94824.63;;;3.94;100.00
12775;BME280;6451;42.630;23.382;2024-02-15T04:25:06;94821.78;;;4.04;100.00
12775;BME280;6451;42.630;23.382;2024-02-15T04:27:35;94816.16;;;3.86;100.00
12775;BME280;6451;42.630;23.382;2024-02-15T04:30:02;94809.31;;;3.94;100.00
12775;BME280;6451;42.630;23.382;2024-02-15T04:32:29;94827.75;;;4.01;100.00
12775;BME280;6451;42.630;23.382;2024-02-15T04:34:59;94825.94;;;3.96;100.00
12775;BME280;6451;42.630;23.382;2024-02-15T04:37:28;94827.16;;;4.04;100.00
12775;BME280;6451;42.630;23.382;2024-02-15T04:39:58;94826.03;;;3.91;100.00
12775;BME280;6451;42.630;23.382;2024-02-15T04:42:33;94832.03;;;4.02;100.00
12775;BME280;6451;42.630;23.382;2024-02-15T04:45:01;94839.00;;;4.03;100.00
12775;BME280;6451;42.630;23.382;2024-02-15T05:01:06;94848.28;;;3.73;100.00
12775;BME280;6451;42.630;23.382;2024-02-15T05:03:33;94860.25;;;3.80;100.00
12775;BME280;6451;42.630;23.382;2024-02-15T05:06:00;94842.06;;;3.77;100.00
12775;BME280;6451;42.630;23.382;2024-02-15T05:08:30;94848.88;;;3.70;100.00
12775;BME280;6451;42.630;23.382;2024-02-15T05:10:58;94854.31;;;3.83;100.00
12775;BME280;6451;42.630;23.382;2024-02-15T05:13:25;94878.03;;;3.76;100.00
12775;BME280;6451;42.630;23.382;2024-02-15T05:15:52;94860.25;;;3.80;100.00
12775;BME280;6451;42.630;23.382;2024-02-15T05:18:22;94870.50;;;3.78;100.00
12775;BME280;6451;42.630;23.382;2024-02-15T05:20:49;94865.84;;;3.65;100.00
12775;BME280;6451;42.630;23.382;2024-02-15T05:23:17;94873.69;;;3.80;100.00
12775;BME280;6451;42.630;23.382;2024-02-15T05:25:44;94857.72;;;3.70;100.00
12775;BME280;6451;42.630;23.382;2024-02-15T05:28:12;94877.00;;;3.72;100.00
12775;BME280;6451;42.630;23.382;2024-02-15T05:30:41;94871.44;;;3.69;100.00
12775;BME280;6451;42.630;23.382;2024-02-15T05:33:10;94880.94;;;3.80;100.00
12775;BME280;6451;42.630;23.382;2024-02-15T05:35:39;94876.84;;;3.82;100.00
12775;BME280;6451;42.630;23.382;2024-02-15T05:38:11;94889.22;;;3.83;100.00
12775;BME280;6451;42.630;23.382;2024-02-15T05:40:44;94823.81;;;3.37;100.00
12775;BME280;6451;42.630;23.382;2024-02-15T05:43:14;94876.66;;;3.79;100.00
12775;BME280;6451;42.630;23.382;2024-02-15T05:45:42;94876.84;;;3.82;100.00
12775;BME280;6451;42.630;23.382;2024-02-15T05:48:12;94891.47;;;3.76;100.00
12775;BME280;6451;42.630;23.382;2024-02-15T05:50:42;94870.91;;;3.67;100.00
12775;BME280;6451;42.630;23.382;2024-02-15T05:53:09;94861.06;;;3.62;100.00
12775;BME280;6451;42.630;23.382;2024-02-15T05:55:37;94888.03;;;3.89;100.00
12775;BME280;6451;42.630;23.382;2024-02-15T05:58:06;94875.34;;;3.76;100.00
12775;BME280;6451;42.630;23.382;2024-02-15T06:00:35;94896.19;;;3.84;100.00
12775;BME280;6451;42.630;23.382;2024-02-15T06:03:05;94897.53;;;3.82;100.00
12775;BME280;6451;42.630;23.382;2024-02-15T06:05:34;94894.16;;;3.76;100.00
12775;BME280;6451;42.630;23.382;2024-02-15T06:08:03;94911.31;;;3.75;100.00
12775;BME280;6451;42.630;23.382;2024-02-15T06:10:31;94871.09;;;3.51;100.00
12775;BME280;6451;42.630;23.382;2024-02-15T06:12:58;94917.06;;;3.87;100.00
12775;BME280;6451;42.630;23.382;2024-02-15T06:15:28;94919.03;;;4.01;100.00
12775;BME280;6451;42.630;23.382;2024-02-15T06:17:56;94908.34;;;3.96;100.00
12775;BME280;6451;42.630;23.382;2024-02-15T06:20:24;94908.41;;;3.90;100.00
12775;BME280;6451;42.630;23.382;2024-02-15T06:22:55;94929.91;;;3.90;100.00
12775;BME280;6451;42.630;23.382;2024-02-15T06:25:25;94930.78;;;3.86;100.00
12775;BME280;6451;42.630;23.382;2024-02-15T06:27:58;94937.59;;;3.97;100.00
12775;BME280;6451;42.630;23.382;2024-02-15T06:30:28;94931.56;;;3.86;100.00
12775;BME280;6451;42.630;23.382;2024-02-15T06:33:13;94913.78;;;3.72;100.00
12775;BME280;6451;42.630;23.382;2024-02-15T06:35:57;94940.28;;;3.78;100.00
12775;BME280;6451;42.630;23.382;2024-02-15T06:38:42;94931.06;;;3.84;100.00
12775;BME280;6451;42.630;23.382;2024-02-15T06:41:27;94937.16;;;4.28;100.00
12775;BME280;6451;42.630;23.382;2024-02-15T06:43:54;94941.91;;;4.17;100.00
12775;BME280;6451;42.630;23.382;2024-02-15T06:46:21;94948.88;;;3.99;100.00
12775;BME280;6451;42.630;23.382;2024-02-15T06:48:59;94937.53;;;3.83;100.00
12775;BME280;6451;42.630;23.382;2024-02-15T06:51:26;94952.13;;;3.96;100.00
12775;BME280;6451;42.630;23.382;2024-02-15T06:53:54;94883.81;;;3.46;100.00
12775;BME280;6451;42.630;23.382;2024-02-15T06:56:22;94906.81;;;3.89;100.00
12775;BME280;6451;42.630;23.382;2024-02-15T06:58:52;94937.91;;;4.14;100.00
12775;BME280;6451;42.630;23.382;2024-02-15T07:01:21;94940.31;;;4.16;100.00
12775;BME280;6451;42.630;23.382;2024-02-15T07:03:51;94923.22;;;3.88;100.00
12775;BME280;6451;42.630;23.382;2024-02-15T07:06:18;94940.56;;;3.96;100.00
12775;BME280;6451;42.630;23.382;2024-02-15T07:08:52;94888.41;;;3.83;100.00
12775;BME280;6451;42.630;23.382;2024-02-15T07:11:27;94927.81;;;3.87;100.00
12775;BME280;6451;42.630;23.382;2024-02-15T07:13:56;94924.88;;;3.65;100.00
12775;BME280;6451;42.630;23.382;2024-02-15T07:16:24;94925.66;;;3.66;100.00
12775;BME280;6451;42.630;23.382;2024-02-15T07:18:51;94931.22;;;3.93;100.00
12775;BME280;6451;42.630;23.382;2024-02-15T07:21:19;94941.22;;;3.87;100.00
12775;BME280;6451;42.630;23.382;2024-02-15T07:23:51;94937.53;;;3.83;100.00
12775;BME280;6451;42.630;23.382;2024-02-15T07:26:19;94953.34;;;3.85;100.00
12775;BME280;6451;42.630;23.382;2024-02-15T07:28:50;94928.38;;;4.03;100.00
12775;BME280;6451;42.630;23.382;2024-02-15T07:31:19;94926.88;;;4.16;100.00
12775;BME280;6451;42.630;23.382;2024-02-15T07:33:47;94941.97;;;4.31;100.00
12775;BME280;6451;42.630;23.382;2024-02-15T07:36:18;94931.19;;;4.50;100.00
12775;BME280;6451;42.630;23.382;2024-02-15T07:38:47;94932.97;;;4.73;100.00
12775;BME280;6451;42.630;23.382;2024-02-15T07:41:14;94904.25;;;4.55;100.00
12775;BME280;6451;42.630;23.382;2024-02-15T07:43:43;94946.91;;;4.75;100.00
12775;BME280;6451;42.630;23.382;2024-02-15T07:46:12;94934.84;;;4.72;100.00
12775;BME280;6451;42.630;23.382;2024-02-15T07:48:43;94881.69;;;4.69;100.00
12775;BME280;6451;42.630;23.382;2024-02-15T07:51:12;94919.59;;;5.00;100.00
12775;BME280;6451;42.630;23.382;2024-02-15T07:53:40;94907.66;;;5.07;100.00
12775;BME280;6451;42.630;23.382;2024-02-15T07:56:12;94910.63;;;5.19;100.00
12775;BME280;6451;42.630;23.382;2024-02-15T07:58:41;94913.94;;;5.16;100.00
12775;BME280;6451;42.630;23.382;2024-02-15T08:01:11;94921.78;;;5.12;100.00
12775;BME280;6451;42.630;23.382;2024-02-15T08:03:38;94882.22;;;4.85;100.00
12775;BME280;6451;42.630;23.382;2024-02-15T08:06:11;94921.69;;;5.17;100.00
12775;BME280;6451;42.630;23.382;2024-02-15T08:08:38;94924.00;;;5.51;100.00
12775;BME280;6451;42.630;23.382;2024-02-15T08:11:06;94909.03;;;5.73;99.17
12775;BME280;6451;42.630;23.382;2024-02-15T08:13:40;94915.91;;;5.79;97.12
12775;BME280;6451;42.630;23.382;2024-02-15T08:16:07;94911.81;;;5.95;94.82
12775;BME280;6451;42.630;23.382;2024-02-15T08:18:34;94908.31;;;5.81;96.33
12775;BME280;6451;42.630;23.382;2024-02-15T08:21:03;94912.72;;;5.77;95.88
12775;BME280;6451;42.630;23.382;2024-02-15T08:23:31;94910.94;;;5.58;96.44
12775;BME280;6451;42.630;23.382;2024-02-15T08:25:58;94920.31;;;5.61;97.98
12775;BME280;6451;42.630;23.382;2024-02-15T08:28:25;94901.03;;;5.81;96.88
12775;BME280;6451;42.630;23.382;2024-02-15T08:30:54;94905.94;;;5.66;96.89
12775;BME280;6451;42.630;23.382;2024-02-15T08:33:22;94872.66;;;5.48;97.23
12775;BME280;6451;42.630;23.382;2024-02-15T08:35:50;94905.69;;;5.53;97.44
12775;BME280;6451;42.630;23.382;2024-02-15T08:38:20;94904.75;;;5.72;97.93
12775;BME280;6451;42.630;23.382;2024-02-15T08:40:50;94918.72;;;5.33;98.01
12775;BME280;6451;42.630;23.382;2024-02-15T08:43:19;94904.44;;;5.59;97.83
12775;BME280;6451;42.630;23.382;2024-02-15T08:45:45;94911.13;;;5.76;98.01
12775;BME280;6451;42.630;23.382;2024-02-15T08:48:13;94907.63;;;6.03;96.56
12775;BME280;6451;42.630;23.382;2024-02-15T08:50:42;94910.91;;;6.00;95.55
12775;BME280;6451;42.630;23.382;2024-02-15T08:53:11;94902.44;;;6.06;95.91
12775;BME280;6451;42.630;23.382;2024-02-15T08:55:39;94904.56;;;6.18;94.61
12775;BME280;6451;42.630;23.382;2024-02-15T08:58:07;94845.66;;;6.03;91.94
12775;BME280;6451;42.630;23.382;2024-02-15T09:00:35;94898.09;;;6.19;92.92
12775;BME280;6451;42.630;23.382;2024-02-15T09:03:03;94899.72;;;6.06;93.68
12775;BME280;6451;42.630;23.382;2024-02-15T09:05:30;94881.97;;;6.28;93.19
12775;BME280;6451;42.630;23.382;2024-02-15T09:07:57;94888.44;;;6.40;91.98
12775;BME280;6451;42.630;23.382;2024-02-15T09:10:26;94900.63;;;6.60;91.46
12775;BME280;6451;42.630;23.382;2024-02-15T09:12:53;94895.25;;;6.38;91.88
12775;BME280;6451;42.630;23.382;2024-02-15T09:15:22;94886.50;;;6.19;92.36
12775;BME280;6451;42.630;23.382;2024-02-15T09:17:50;94898.16;;;6.50;91.40
12775;BME280;6451;42.630;23.382;2024-02-15T11:03:59;94805.50;;;8.43;73.57
12775;BME280;6451;42.630;23.382;2024-02-15T11:06:45;94646.16;;;7.31;74.69
12775;BME280;6451;42.630;23.382;2024-02-15T11:09:50;94806.81;;;8.37;74.26
12775;BME280;6451;42.630;23.382;2024-02-15T11:12:40;94778.31;;;8.22;76.01
12775;BME280;6451;42.630;23.382;2024-02-15T11:15:09;94793.72;;;8.48;75.43
12775;BME280;6451;42.630;23.382;2024-02-15T11:17:48;94757.50;;;8.87;74.81
12775;BME280;6451;42.630;23.382;2024-02-15T11:20:54;94797.94;;;8.83;74.43
12775;BME280;6451;42.630;23.382;2024-02-15T11:23:30;94793.09;;;8.59;74.39
12775;BME280;6451;42.630;23.382;2024-02-15T11:25:57;94791.16;;;8.60;75.01
12775;BME280;6451;42.630;23.382;2024-02-15T11:28:46;94779.41;;;8.56;74.47
12775;BME280;6451;42.630;23.382;2024-02-15T11:34:45;94754.94;;;8.44;75.46
12775;BME280;6451;42.630;23.382;2024-02-15T11:37:54;94786.47;;;8.86;74.51
12775;BME280;6451;42.630;23.382;2024-02-15T11:40:24;94733.63;;;8.80;74.47
12775;BME280;6451;42.630;23.382;2024-02-15T11:42:54;94778.25;;;9.04;72.65
12775;BME280;6451;42.630;23.382;2024-02-15T11:45:24;94790.94;;;8.82;72.27
12775;BME280;6451;42.630;23.382;2024-02-15T11:47:52;94778.09;;;9.09;72.20
12775;BME280;6451;42.630;23.382;2024-02-15T11:50:27;94730.31;;;9.13;72.00
12775;BME280;6451;42.630;23.382;2024-02-15T11:53:03;94776.75;;;9.24;71.12
12775;BME280;6451;42.630;23.382;2024-02-15T11:55:37;94771.78;;;9.26;71.92
12775;BME280;6451;42.630;23.382;2024-02-15T11:58:11;94760.22;;;9.16;71.36
12775;BME280;6451;42.630;23.382;2024-02-15T12:00:48;94780.13;;;9.12;71.06
12775;BME280;6451;42.630;23.382;2024-02-15T12:03:33;94766.25;;;8.84;70.86
12775;BME280;6451;42.630;23.382;2024-02-15T12:06:31;94744.78;;;8.79;71.03
12775;BME280;6451;42.630;23.382;2024-02-15T12:09:19;94761.41;;;9.36;69.94
12775;BME280;6451;42.630;23.382;2024-02-15T12:12:04;94757.97;;;9.48;69.92
12775;BME280;6451;42.630;23.382;2024-02-15T12:14:48;94750.22;;;9.08;68.90
12775;BME280;6451;42.630;23.382;2024-02-15T12:17:33;94719.56;;;8.96;69.68
12775;BME280;6451;42.630;23.382;2024-02-15T12:20:18;94758.47;;;9.12;69.83
12775;BME280;6451;42.630;23.382;2024-02-15T12:22:51;94750.19;;;9.17;69.49
12775;BME280;6451;42.630;23.382;2024-02-15T12:25:20;94760.16;;;9.55;68.88
12775;BME280;6451;42.630;23.382;2024-02-15T12:27:52;94746.53;;;9.42;68.60
12775;BME280;6451;42.630;23.382;2024-02-15T12:30:20;94750.84;;;9.64;68.03
12775;BME280;6451;42.630;23.382;2024-02-15T12:32:47;94749.13;;;9.60;67.84
12775;BME280;6451;42.630;23.382;2024-02-15T12:35:17;94712.19;;;9.55;67.97
12775;BME280;6451;42.630;23.382;2024-02-15T12:37:49;94733.53;;;9.57;68.07
12775;BME280;6451;42.630;23.382;2024-02-15T12:40:39;94643.53;;;9.09;67.22
12775;BME280;6451;42.630;23.382;2024-02-15T12:43:09;94734.47;;;9.82;67.36
12775;BME280;6451;42.630;23.382;2024-02-15T12:45:38;94735.16;;;9.28;68.21
12775;BME280;6451;42.630;23.382;2024-02-15T12:48:08;94695.41;;;8.90;69.25
12775;BME280;6451;42.630;23.382;2024-02-15T12:50:37;94737.06;;;9.28;69.75
12775;BME280;6451;42.630;23.382;2024-02-15T12:53:07;94737.31;;;9.43;69.17
12775;BME280;6451;42.630;23.382;2024-02-15T12:55:37;94712.38;;;9.50;69.06
12775;BME280;6451;42.630;23.382;2024-02-15T12:58:22;94728.09;;;9.98;68.20
12775;BME280;6451;42.630;23.382;2024-02-15T13:00:55;94723.13;;;10.21;67.56
12775;BME280;6451;42.630;23.382;2024-02-15T13:03:24;94730.53;;;10.12;66.48
12775;BME280;6451;42.630;23.382;2024-02-15T13:05:53;94722.94;;;10.06;66.12
12775;BME280;6451;42.630;23.382;2024-02-15T13:08:21;94734.25;;;10.08;66.14
12775;BME280;6451;42.630;23.382;2024-02-15T13:10:52;94701.34;;;9.76;66.17
12775;BME280;6451;42.630;23.382;2024-02-15T13:13:19;94703.09;;;9.60;67.15
12775;BME280;6451;42.630;23.382;2024-02-15T13:15:47;94714.09;;;9.75;67.71
12775;BME280;6451;42.630;23.382;2024-02-15T13:18:15;94722.41;;;10.12;66.49
12775;BME280;6451;42.630;23.382;2024-02-15T13:20:43;94729.81;;;10.03;65.68
12775;BME280;6451;42.630;23.382;2024-02-15T13:23:11;94728.53;;;9.67;66.29
12775;BME280;6451;42.630;23.382;2024-02-15T13:25:45;94712.09;;;10.06;66.01
12775;BME280;6451;42.630;23.382;2024-02-15T13:28:14;94715.94;;;10.38;64.89
12775;BME280;6451;42.630;23.382;2024-02-15T13:30:41;94720.25;;;10.39;64.43
12775;BME280;6451;42.630;23.382;2024-02-15T13:33:13;94697.06;;;10.41;63.81
12775;BME280;6451;42.630;23.382;2024-02-15T13:35:42;94694.91;;;10.01;65.17
12775;BME280;6451;42.630;23.382;2024-02-15T13:38:11;94729.56;;;10.62;64.39
12775;BME280;6451;42.630;23.382;2024-02-15T13:40:40;94728.09;;;10.52;63.30
12775;BME280;6451;42.630;23.382;2024-02-15T13:43:07;94710.50;;;10.83;62.82
12775;BME280;6451;42.630;23.382;2024-02-15T13:45:39;94706.44;;;10.89;62.27
12775;BME280;6451;42.630;23.382;2024-02-15T13:48:07;94729.38;;;10.67;63.51
12775;BME280;6451;42.630;23.382;2024-02-15T13:50:37;94718.13;;;10.44;64.50
12775;BME280;6451;42.630;23.382;2024-02-15T13:53:08;94676.50;;;10.28;64.51
12775;BME280;6451;42.630;23.382;2024-02-15T13:55:35;94720.34;;;10.30;65.76
12775;BME280;6451;42.630;23.382;2024-02-15T13:58:04;94718.63;;;10.83;64.61
12775;BME280;6451;42.630;23.382;2024-02-15T14:00:37;94710.81;;;10.94;63.95
12775;BME280;6451;42.630;23.382;2024-02-15T14:03:07;94715.94;;;11.07;63.79
12775;BME280;6451;42.630;23.382;2024-02-15T14:05:38;94715.34;;;11.26;63.31
12775;BME280;6451;42.630;23.382;2024-02-15T14:08:10;94714.09;;;10.87;62.70
12775;BME280;6451;42.630;23.382;2024-02-15T14:10:42;94715.47;;;11.05;62.51
12775;BME280;6451;42.630;23.382;2024-02-15T14:13:10;94733.69;;;10.93;62.35
12775;BME280;6451;42.630;23.382;2024-02-15T14:15:40;94734.50;;;10.48;62.12
12775;BME280;6451;42.630;23.382;2024-02-15T14:18:26;94726.47;;;10.39;62.84
12775;BME280;6451;42.630;23.382;2024-02-15T14:24:01;94729.38;;;10.34;63.79
12775;BME280;6451;42.630;23.382;2024-02-15T14:26:31;94724.00;;;10.46;62.81
12775;BME280;6451;42.630;23.382;2024-02-15T14:28:57;94677.72;;;10.30;62.31
12775;BME280;6451;42.630;23.382;2024-02-15T14:31:28;94701.81;;;10.11;63.17
12775;BME280;6451;42.630;23.382;2024-02-15T14:34:13;94728.38;;;10.06;64.02
12775;BME280;6451;42.630;23.382;2024-02-15T14:36:41;94729.53;;;9.96;65.47
12775;BME280;6451;42.630;23.382;2024-02-15T14:39:08;94734.25;;;10.08;65.24
12775;BME280;6451;42.630;23.382;2024-02-15T14:41:36;94714.03;;;10.17;64.54
12775;BME280;6451;42.630;23.382;2024-02-15T14:44:04;94712.56;;;10.08;63.90
12775;BME280;6451;42.630;23.382;2024-02-15T14:46:33;94720.88;;;10.23;64.72
12775;BME280;6451;42.630;23.382;2024-02-15T14:49:01;94729.00;;;10.23;64.97
12775;BME280;6451;42.630;23.382;2024-02-15T14:51:31;94716.47;;;9.98;65.09
12775;BME280;6451;42.630;23.382;2024-02-15T14:54:01;94725.22;;;10.16;64.64
12775;BME280;6451;42.630;23.382;2024-02-15T14:56:29;94727.75;;;10.21;64.29
12775;BME280;6451;42.630;23.382;2024-02-15T14:58:59;94733.25;;;10.12;65.01
12775;BME280;6451;42.630;23.382;2024-02-15T15:01:27;94732.38;;;10.20;64.82
12775;BME280;6451;42.630;23.382;2024-02-15T15:03:56;94737.41;;;10.10;65.09
12775;BME280;6451;42.630;23.382;2024-02-15T15:06:44;94717.72;;;9.80;65.26
12775;BME280;6451;42.630;23.382;2024-02-15T15:09:28;94712.72;;;9.90;65.27
12775;BME280;6451;42.630;23.382;2024-02-15T15:12:13;94702.59;;;10.12;64.65
12775;BME280;6451;42.630;23.382;2024-02-15T15:14:58;94727.44;;;10.22;65.39
12775;BME280;6451;42.630;23.382;2024-02-15T15:17:25;94713.59;;;10.15;65.06
12775;BME280;6451;42.630;23.382;2024-02-15T15:19:54;94734.66;;;10.51;64.60
12775;BME280;6451;42.630;23.382;2024-02-15T15:22:21;94731.44;;;10.37;65.09
12775;BME280;6451;42.630;23.382;2024-02-15T15:24:49;94733.38;;;10.16;66.08
12775;BME280;6451;42.630;23.382;2024-02-15T15:27:17;94737.84;;;10.12;66.85